Time;durP1;ratioP1;P1;durP2;ratioP2;P2;SDS_P1;SDS_P2;PMS_P1;PMS_P2;Temp;Humidity;BMP_temperature;BMP_pressure;BME280_temperature;BME280_humidity;BME280_pressure;Samples;Min_cycle;Max_cycle;Signal;HPM_P1;HPM_P2
2022/10/07 00:01:24;;;;;;;9.20;6.30;;;;;;;;;;104994;1295;22496;-37
2022/10/07 00:03:56;;;;;;;8.90;6.20;;;;;;;;;;105008;1295;22481;-37
2022/10/07 00:06:28;;;;;;;9.70;6.90;;;;;;;;;;104946;1295;25484;-36
2022/10/07 00:09:01;;;;;;;8.70;5.90;;;;;;;;;;104987;1295;22550;-37
2022/10/07 00:11:31;;;;;;;;;;;;;;;;;;105004;1294;22461;-37
2022/10/07 00:14:07;;;;;;;9.40;6.60;;;;;;;;;;105000;1294;22509;-37
2022/10/07 00:16:42;;;;;;;10.20;6.80;;;;;;;;;;104965;1294;22506;-37
2022/10/07 00:19:15;;;;;;;8.80;6.70;;;;;;;;;;104984;1294;22492;-37
2022/10/07 00:21:47;;;;;;;9.40;6.70;;;;;;;;;;105021;1295;22677;-37
2022/10/07 00:24:19;;;;;;;11.10;7.20;;;;;;;;;;105029;1294;22478;-37
2022/10/07 00:26:51;;;;;;;9.10;6.60;;;;;;;;;;104960;1287;22522;-37
2022/10/07 00:29:23;;;;;;;10.20;7.20;;;;;;;;;;105017;1294;22608;-36
2022/10/07 00:31:55;;;;;;;10.10;7.20;;;;;;;;;;105009;1296;22504;-37
2022/10/07 00:34:27;;;;;;;10.00;7.50;;;;;;;;;;105004;1295;22605;-37
2022/10/07 00:36:59;;;;;;;10.50;7.40;;;;;;;;;;104957;1294;26438;-37
2022/10/07 00:39:31;;;;;;;9.70;7.50;;;;;;;;;;105001;1294;26044;-37
2022/10/07 00:42:03;;;;;;;10.00;7.20;;;;;;;;;;105001;1294;22501;-37
2022/10/07 00:44:47;;;;;;;9.50;7.30;;;;;;;;;;104992;1294;24024;-37
2022/10/07 00:47:30;;;;;;;9.80;6.80;;;;;;;;;;104923;1301;24098;-37
2022/10/07 00:50:11;;;;;;;10.50;7.70;;;;;;;;;;104975;1295;22673;-35
2022/10/07 00:52:50;;;;;;;10.40;7.20;;;;;;;;;;104972;1296;24455;-37
2022/10/07 00:55:28;;;;;;;10.90;6.80;;;;;;;;;;105023;1294;22547;-37
2022/10/07 00:58:08;;;;;;;10.40;7.10;;;;;;;;;;104922;1294;28259;-36
2022/10/07 01:00:41;;;;;;;9.30;6.70;;;;;;;;;;104988;1294;22480;-36
2022/10/07 01:03:14;;;;;;;9.70;7.00;;;;;;;;;;104981;1295;22530;-36
2022/10/07 01:05:45;;;;;;;8.80;7.20;;;;;;;;;;104979;1301;22541;-37
2022/10/07 01:08:17;;;;;;;10.40;6.80;;;;;;;;;;104778;1291;27749;-37
2022/10/07 01:11:00;;;;;;;10.50;7.30;;;;;;;;;;104845;1298;22495;-37
2022/10/07 01:13:41;;;;;;;9.70;6.70;;;;;;;;;;104875;1298;25294;-37
2022/10/07 01:16:25;;;;;;;9.20;7.20;;;;;;;;;;104817;1297;22493;-37
2022/10/07 01:19:08;;;;;;;9.00;6.90;;;;;;;;;;104935;1287;26198;-37
2022/10/07 01:21:57;;;;;;;12.30;7.00;;;;;;;;;;104979;1295;21781;-38
2022/10/07 01:24:43;;;;;;;9.60;7.50;;;;;;;;;;104961;1294;22552;-37
2022/10/07 01:27:17;;;;;;;9.30;6.60;;;;;;;;;;104917;1295;22553;-37
2022/10/07 01:29:56;;;;;;;9.90;6.60;;;;;;;;;;104995;1300;22484;-37
2022/10/07 01:32:33;;;;;;;9.40;6.80;;;;;;;;;;105015;1294;22492;-37
2022/10/07 01:35:11;;;;;;;8.90;6.90;;;;;;;;;;105042;1294;22541;-37
2022/10/07 01:37:49;;;;;;;8.60;6.60;;;;;;;;;;104989;1295;25211;-36
2022/10/07 01:40:32;;;;;;;9.30;6.70;;;;;;;;;;104979;1294;23391;-37
2022/10/07 01:43:04;;;;;;;8.60;6.70;;;;;;;;;;105001;1292;22627;-37
2022/10/07 01:45:40;;;;;;;11.00;7.30;;;;;;;;;;104991;1294;22509;-37
2022/10/07 01:48:12;;;;;;;9.80;7.40;;;;;;;;;;104950;1300;22511;-36
2022/10/07 01:50:45;;;;;;;11.20;7.60;;;;;;;;;;104994;1292;22537;-37
2022/10/07 01:53:31;;;;;;;12.30;8.00;;;;;;;;;;104998;1295;23849;-38
2022/10/07 01:56:23;;;;;;;11.20;7.40;;;;;;;;;;105002;1293;22491;-37
2022/10/07 01:59:17;;;;;;;11.70;7.90;;;;;;;;;;104891;1297;22561;-37
2022/10/07 02:02:01;;;;;;;13.50;8.30;;;;;;;;;;104914;1293;23173;-36
2022/10/07 02:04:46;;;;;;;14.20;8.60;;;;;;;;;;104932;1294;24371;-37
2022/10/07 02:07:34;;;;;;;12.50;8.20;;;;;;;;;;104912;1294;24454;-37
2022/10/07 02:10:17;;;;;;;13.90;8.50;;;;;;;;;;104893;1294;23761;-36
2022/10/07 02:12:56;;;;;;;14.00;8.60;;;;;;;;;;104901;1300;22512;-36
2022/10/07 02:15:35;;;;;;;14.80;9.00;;;;;;;;;;104905;1296;25265;-38
2022/10/07 02:18:13;;;;;;;14.80;9.80;;;;;;;;;;104844;1294;22484;-36
2022/10/07 02:20:50;;;;;;;15.20;9.50;;;;;;;;;;104893;1295;26515;-37
2022/10/07 02:23:26;;;;;;;13.80;9.30;;;;;;;;;;104909;1301;22486;-37
2022/10/07 02:25:59;;;;;;;14.60;9.70;;;;;;;;;;104931;1297;25419;-37
2022/10/07 02:28:34;;;;;;;14.60;9.60;;;;;;;;;;104877;1298;22504;-36
2022/10/07 02:31:11;;;;;;;16.70;9.80;;;;;;;;;;104919;1294;23956;-36
2022/10/07 02:33:49;;;;;;;18.10;10.20;;;;;;;;;;104930;1298;25497;-37
2022/10/07 02:36:27;;;;;;;13.90;10.00;;;;;;;;;;104917;1296;22545;-37
2022/10/07 02:39:00;;;;;;;14.20;9.20;;;;;;;;;;104879;1294;25991;-37
2022/10/07 02:41:40;;;;;;;14.70;9.80;;;;;;;;;;104887;1295;24013;-36
2022/10/07 02:44:24;;;;;;;14.90;9.40;;;;;;;;;;104909;1287;26152;-37
2022/10/07 02:47:04;;;;;;;14.60;10.10;;;;;;;;;;104903;1294;22650;-37
2022/10/07 02:49:38;;;;;;;12.80;9.30;;;;;;;;;;104881;1294;22560;-37
2022/10/07 02:52:16;;;;;;;14.20;9.30;;;;;;;;;;104969;1300;22680;-37
2022/10/07 02:54:56;;;;;;;14.20;9.40;;;;;;;;;;105001;1301;22611;-37
2022/10/07 02:57:33;;;;;;;12.70;9.00;;;;;;;;;;104979;1294;22503;-37
2022/10/07 03:00:08;;;;;;;12.70;9.40;;;;;;;;;;104907;1296;22503;-37
2022/10/07 03:02:48;;;;;;;13.30;9.30;;;;;;;;;;104926;1294;22494;-37
2022/10/07 03:05:24;;;;;;;14.10;9.70;;;;;;;;;;104960;1294;22542;-37
2022/10/07 03:08:00;;;;;;;13.40;9.80;;;;;;;;;;104956;1294;25260;-37
2022/10/07 03:10:35;;;;;;;12.80;8.90;;;;;;;;;;104907;1296;22499;-36
2022/10/07 03:13:09;;;;;;;12.80;9.10;;;;;;;;;;104920;1296;22524;-36
2022/10/07 03:15:42;;;;;;;13.00;8.90;;;;;;;;;;104939;1295;22590;-37
2022/10/07 03:18:27;;;;;;;13.20;9.00;;;;;;;;;;104954;1295;24523;-37
2022/10/07 03:21:00;;;;;;;12.20;8.20;;;;;;;;;;104892;1295;22488;-36
2022/10/07 03:23:32;;;;;;;13.90;9.00;;;;;;;;;;104933;1294;22969;-36
2022/10/07 03:26:04;;;;;;;12.80;8.90;;;;;;;;;;104925;1301;23220;-36
2022/10/07 03:28:37;;;;;;;11.20;8.20;;;;;;;;;;104946;1294;22477;-36
2022/10/07 03:31:14;;;;;;;11.80;8.20;;;;;;;;;;104879;1288;24122;-36
2022/10/07 03:33:46;;;;;;;12.60;8.60;;;;;;;;;;104934;1294;23878;-36
2022/10/07 03:36:18;;;;;;;11.90;8.30;;;;;;;;;;104933;1292;25394;-36
2022/10/07 03:38:50;;;;;;;12.10;7.70;;;;;;;;;;104953;1295;22498;-36
2022/10/07 03:41:23;;;;;;;11.50;8.40;;;;;;;;;;104917;1294;23991;-37
2022/10/07 03:43:57;;;;;;;;;;;;;;;;;;105028;1294;25605;-37
2022/10/07 03:46:29;;;;;;;10.90;8.00;;;;;;;;;;104978;1302;22535;-37
2022/10/07 03:49:02;;;;;;;11.10;7.80;;;;;;;;;;105001;1294;22556;-37
2022/10/07 03:51:36;;;;;;;10.40;7.70;;;;;;;;;;104971;1294;22565;-37
2022/10/07 03:54:08;;;;;;;10.30;7.60;;;;;;;;;;104981;1294;22495;-38
2022/10/07 03:56:40;;;;;;;10.00;7.40;;;;;;;;;;104957;1288;24829;-37
2022/10/07 03:59:14;;;;;;;11.10;8.40;;;;;;;;;;104954;1294;22516;-38
2022/10/07 04:01:46;;;;;;;11.40;7.90;;;;;;;;;;104884;1294;22544;-37
2022/10/07 04:04:19;;;;;;;10.50;7.40;;;;;;;;;;104896;1294;22527;-37
2022/10/07 04:06:51;;;;;;;11.40;7.80;;;;;;;;;;104824;1295;22504;-38
2022/10/07 04:09:23;;;;;;;11.20;7.90;;;;;;;;;;104782;1297;22500;-37
2022/10/07 04:11:55;;;;;;;10.90;7.50;;;;;;;;;;104885;1303;22527;-37
2022/10/07 04:14:27;;;;;;;9.80;7.10;;;;;;;;;;104960;1294;22485;-37
2022/10/07 04:16:58;;;;;;;9.90;7.20;;;;;;;;;;104994;1293;22519;-37
2022/10/07 04:19:30;;;;;;;11.20;7.90;;;;;;;;;;104945;1292;22576;-37
2022/10/07 04:22:05;;;;;;;;;;;;;;;;;;104915;1295;24065;-37
2022/10/07 04:24:37;;;;;;;9.40;7.10;;;;;;;;;;104969;1295;22614;-37
2022/10/07 04:27:09;;;;;;;10.80;6.90;;;;;;;;;;104978;1294;24291;-36
2022/10/07 04:29:40;;;;;;;10.00;7.10;;;;;;;;;;104959;1288;22480;-37
2022/10/07 04:32:12;;;;;;;9.80;6.60;;;;;;;;;;104924;1297;24135;-37
2022/10/07 04:34:44;;;;;;;9.20;6.90;;;;;;;;;;104994;1294;22688;-37
2022/10/07 04:37:16;;;;;;;10.00;6.90;;;;;;;;;;104953;1296;23031;-36
2022/10/07 04:39:48;;;;;;;9.10;6.30;;;;;;;;;;104939;1296;24063;-36
2022/10/07 04:45:11;;;;;;;9.10;6.90;;;;;;;;;;104995;1288;22501;-35
2022/10/07 04:47:46;;;;;;;10.40;7.30;;;;;;;;;;104951;1300;25529;-38
2022/10/07 04:50:18;;;;;;;9.50;6.50;;;;;;;;;;104988;1294;22493;-38
2022/10/07 04:52:50;;;;;;;9.20;6.70;;;;;;;;;;104890;1288;22623;-38
2022/10/07 04:55:22;;;;;;;8.70;6.10;;;;;;;;;;104861;1294;104313;-38
2022/10/07 04:57:54;;;;;;;9.90;6.40;;;;;;;;;;104969;1296;22728;-35
2022/10/07 05:00:25;;;;;;;9.20;6.40;;;;;;;;;;104958;1294;24615;-35
2022/10/07 05:02:57;;;;;;;9.10;6.10;;;;;;;;;;104957;1287;25220;-35
2022/10/07 05:05:29;;;;;;;9.80;6.50;;;;;;;;;;104956;1294;22491;-35
2022/10/07 05:08:01;;;;;;;8.20;6.00;;;;;;;;;;104924;1296;22626;-35
2022/10/07 05:10:37;;;;;;;9.60;5.60;;;;;;;;;;104974;1288;22565;-36
2022/10/07 05:13:13;;;;;;;8.70;6.10;;;;;;;;;;104904;1294;22692;-35
2022/10/07 05:15:55;;;;;;;8.30;6.00;;;;;;;;;;104939;1295;22495;-36
2022/10/07 05:18:29;;;;;;;8.50;6.30;;;;;;;;;;104987;1295;25414;-36
2022/10/07 05:21:05;;;;;;;8.20;6.00;;;;;;;;;;104946;1293;22954;-36
2022/10/07 05:23:38;;;;;;;8.00;5.80;;;;;;;;;;104925;1295;22805;-34
2022/10/07 05:26:13;;;;;;;9.30;5.80;;;;;;;;;;104956;1287;22486;-35
2022/10/07 05:28:48;;;;;;;8.60;5.50;;;;;;;;;;104948;1295;22482;-35
2022/10/07 05:31:20;;;;;;;7.90;5.90;;;;;;;;;;105016;1292;22491;-35
2022/10/07 05:33:51;;;;;;;8.40;5.70;;;;;;;;;;104933;1296;22755;-35
2022/10/07 05:36:23;;;;;;;7.80;5.50;;;;;;;;;;104972;1296;24433;-35
2022/10/07 05:38:58;;;;;;;7.80;5.40;;;;;;;;;;104972;1300;22569;-35
2022/10/07 05:41:32;;;;;;;8.50;5.30;;;;;;;;;;104973;1295;25235;-36
2022/10/07 05:44:06;;;;;;;8.30;5.90;;;;;;;;;;104925;1294;22484;-36
2022/10/07 05:46:39;;;;;;;8.40;5.10;;;;;;;;;;104963;1296;22507;-35
2022/10/07 05:49:14;;;;;;;7.40;5.10;;;;;;;;;;104956;1294;22545;-36
2022/10/07 05:51:46;;;;;;;8.50;5.00;;;;;;;;;;104964;1295;22520;-36
2022/10/07 05:54:19;;;;;;;8.20;5.60;;;;;;;;;;104864;1294;22643;-36
2022/10/07 05:56:51;;;;;;;8.40;5.40;;;;;;;;;;104921;1294;22499;-36
2022/10/07 05:59:23;;;;;;;8.30;5.30;;;;;;;;;;104914;1295;25496;-36
2022/10/07 06:01:56;;;;;;;8.10;5.30;;;;;;;;;;104890;1287;22493;-36
2022/10/07 06:04:30;;;;;;;8.10;5.10;;;;;;;;;;104915;1292;23281;-36
2022/10/07 06:07:02;;;;;;;7.70;5.00;;;;;;;;;;104951;1288;22504;-36
2022/10/07 06:15:14;;;;;;;7.10;4.60;;;;;;;;;;104905;1288;23194;-36
2022/10/07 06:17:47;;;;;;;8.10;4.80;;;;;;;;;;104946;1295;22457;-35
2022/10/07 06:20:20;;;;;;;7.30;4.90;;;;;;;;;;104962;1293;22637;-36
2022/10/07 06:22:54;;;;;;;7.60;5.20;;;;;;;;;;104921;1288;22567;-35
2022/10/07 06:25:26;;;;;;;7.80;5.20;;;;;;;;;;105088;1294;26507;-35
2022/10/07 06:27:59;;;;;;;8.00;5.40;;;;;;;;;;104961;1292;22662;-36
2022/10/07 06:30:32;;;;;;;6.70;4.80;;;;;;;;;;104959;1295;22491;-34
2022/10/07 06:33:04;;;;;;;7.10;5.10;;;;;;;;;;104948;1292;26396;-35
2022/10/07 06:35:38;;;;;;;6.90;4.60;;;;;;;;;;104896;1295;24290;-34
2022/10/07 06:38:11;;;;;;;6.70;4.60;;;;;;;;;;104960;1287;23977;-35
2022/10/07 06:40:44;;;;;;;7.30;4.90;;;;;;;;;;104987;1294;24754;-35
2022/10/07 06:43:16;;;;;;;7.20;4.80;;;;;;;;;;104936;1287;22512;-36
2022/10/07 06:45:48;;;;;;;6.50;4.30;;;;;;;;;;104910;1294;25231;-35
2022/10/07 06:48:20;;;;;;;6.70;4.30;;;;;;;;;;104961;1294;25538;-35
2022/10/07 06:50:58;;;;;;;7.00;4.50;;;;;;;;;;104927;1281;22488;-35
2022/10/07 06:53:33;;;;;;;6.10;4.40;;;;;;;;;;104996;1291;24224;-35
2022/10/07 06:56:08;;;;;;;6.20;4.30;;;;;;;;;;104882;1294;22593;-35
2022/10/07 06:58:41;;;;;;;6.20;4.30;;;;;;;;;;104909;1295;22501;-35
2022/10/07 07:01:14;;;;;;;6.50;4.50;;;;;;;;;;104932;1295;22474;-36
2022/10/07 07:03:46;;;;;;;7.10;4.30;;;;;;;;;;104857;1297;22742;-36
2022/10/07 07:06:18;;;;;;;6.70;4.50;;;;;;;;;;104860;1287;23239;-36
2022/10/07 07:08:50;;;;;;;6.10;4.30;;;;;;;;;;104890;1294;22493;-36
2022/10/07 07:11:39;;;;;;;6.90;4.50;;;;;;;;;;104905;1303;24138;-35
2022/10/07 07:14:13;;;;;;;6.10;4.10;;;;;;;;;;104839;1288;23949;-35
2022/10/07 07:16:45;;;;;;;6.00;4.30;;;;;;;;;;104987;1295;22468;-35
2022/10/07 07:19:18;;;;;;;6.90;4.10;;;;;;;;;;104948;1288;24320;-35
2022/10/07 07:21:49;;;;;;;5.90;4.10;;;;;;;;;;104951;1295;26754;-35
2022/10/07 07:24:21;;;;;;;6.30;4.10;;;;;;;;;;104941;1292;24229;-35
2022/10/07 07:26:53;;;;;;;6.10;4.20;;;;;;;;;;104944;1294;22493;-35
2022/10/07 07:29:26;;;;;;;6.10;4.10;;;;;;;;;;104932;1288;25737;-34
2022/10/07 07:31:58;;;;;;;7.60;3.70;;;;;;;;;;104939;1287;22556;-35
2022/10/07 07:34:32;;;;;;;6.40;3.70;;;;;;;;;;104953;1294;25323;-35
2022/10/07 07:37:04;;;;;;;5.90;4.10;;;;;;;;;;104882;1296;22501;-35
2022/10/07 07:39:37;;;;;;;6.20;4.00;;;;;;;;;;104893;1296;22477;-35
2022/10/07 07:42:08;;;;;;;6.60;4.20;;;;;;;;;;104918;1295;26549;-35
2022/10/07 07:44:40;;;;;;;7.10;4.00;;;;;;;;;;104895;1295;22487;-35
2022/10/07 07:47:15;;;;;;;6.90;4.20;;;;;;;;;;104927;1294;22880;-35
2022/10/07 07:49:48;;;;;;;6.30;3.70;;;;;;;;;;104969;1295;24437;-35
2022/10/07 07:52:20;;;;;;;6.20;3.80;;;;;;;;;;104994;1288;22558;-37
2022/10/07 07:54:56;;;;;;;5.40;3.70;;;;;;;;;;104961;1287;22717;-35
2022/10/07 07:57:31;;;;;;;6.40;4.00;;;;;;;;;;104752;1294;24903;-35
2022/10/07 08:00:04;;;;;;;5.80;3.40;;;;;;;;;;104781;1293;22477;-35
2022/10/07 08:02:34;;;;;;;;;;;;;;;;;;104816;1297;22452;-35
2022/10/07 08:05:09;;;;;;;5.20;3.60;;;;;;;;;;104812;1294;25925;-34
2022/10/07 08:07:41;;;;;;;6.20;3.60;;;;;;;;;;104928;1296;24799;-35
2022/10/07 08:10:14;;;;;;;6.10;3.50;;;;;;;;;;104861;1295;22629;-35
2022/10/07 08:12:44;;;;;;;;;;;;;;;;;;104964;1288;22473;-35
2022/10/07 08:15:16;;;;;;;6.70;3.60;;;;;;;;;;104935;1295;23630;-39
2022/10/07 08:17:48;;;;;;;6.10;3.60;;;;;;;;;;104901;1288;22558;-35
2022/10/07 08:20:20;;;;;;;5.40;3.50;;;;;;;;;;104961;1293;24913;-34
2022/10/07 08:22:52;;;;;;;5.30;3.50;;;;;;;;;;104939;1287;22489;-35
2022/10/07 08:25:27;;;;;;;5.80;3.70;;;;;;;;;;104934;1295;22519;-35
2022/10/07 08:27:58;;;;;;;5.60;3.80;;;;;;;;;;104904;1295;24167;-36
2022/10/07 08:30:30;;;;;;;6.60;3.90;;;;;;;;;;104901;1298;22605;-36
2022/10/07 08:33:02;;;;;;;6.00;3.50;;;;;;;;;;104957;1295;22477;-36
2022/10/07 08:35:34;;;;;;;5.90;3.60;;;;;;;;;;104947;1301;22496;-36
2022/10/07 08:38:06;;;;;;;5.60;3.50;;;;;;;;;;104934;1294;22679;-37
2022/10/07 08:40:38;;;;;;;6.90;4.00;;;;;;;;;;104976;1292;22492;-36
2022/10/07 08:43:11;;;;;;;6.40;3.70;;;;;;;;;;104906;1294;22501;-36
2022/10/07 08:45:44;;;;;;;5.60;3.70;;;;;;;;;;104968;1294;22605;-37
2022/10/07 08:48:29;;;;;;;5.60;3.70;;;;;;;;;;104899;1286;22512;-37
2022/10/07 08:51:12;;;;;;;5.60;3.70;;;;;;;;;;104952;1284;25951;-36
2022/10/07 08:53:46;;;;;;;6.00;3.70;;;;;;;;;;104968;1291;22573;-36
2022/10/07 08:56:22;;;;;;;5.90;3.70;;;;;;;;;;104983;1292;25557;-37
2022/10/07 08:59:09;;;;;;;6.10;3.70;;;;;;;;;;104945;1287;24168;-36
2022/10/07 09:01:57;;;;;;;5.80;3.60;;;;;;;;;;104957;1288;22504;-37
2022/10/07 09:04:47;;;;;;;6.30;3.70;;;;;;;;;;104971;1288;22504;-37
2022/10/07 09:07:30;;;;;;;6.40;3.80;;;;;;;;;;104945;1289;22626;-41
2022/10/07 09:10:14;;;;;;;7.00;3.30;;;;;;;;;;104951;1286;24349;-41
2022/10/07 09:12:54;;;;;;;5.70;3.60;;;;;;;;;;104957;1287;22509;-40
2022/10/07 09:15:42;;;;;;;6.90;3.60;;;;;;;;;;104967;1292;25516;-39
2022/10/07 09:18:26;;;;;;;5.70;3.80;;;;;;;;;;104921;1295;22564;-41
2022/10/07 09:20:59;;;;;;;5.30;3.50;;;;;;;;;;104931;1294;22764;-40
2022/10/07 09:23:35;;;;;;;7.00;3.50;;;;;;;;;;104966;1295;22491;-39
2022/10/07 09:26:13;;;;;;;6.10;3.40;;;;;;;;;;104931;1288;22520;-37
2022/10/07 09:28:45;;;;;;;5.50;3.30;;;;;;;;;;104935;1287;25326;-39
2022/10/07 09:31:18;;;;;;;5.70;3.50;;;;;;;;;;104952;1295;22587;-39
2022/10/07 09:33:51;;;;;;;;;;;;;;;;;;104954;1295;23224;-38
2022/10/07 09:36:25;;;;;;;5.30;3.30;;;;;;;;;;104958;1288;24417;-39
2022/10/07 09:38:57;;;;;;;5.70;3.50;;;;;;;;;;104891;1288;24408;-40
2022/10/07 09:42:24;;;;;;;5.00;3.10;;;;;;;;;;101895;1327;555906;-39
2022/10/07 09:45:01;;;;;;;4.80;3.10;;;;;;;;;;104254;1305;22492;-39
2022/10/07 09:47:40;;;;;;;6.20;3.00;;;;;;;;;;104596;1307;23177;-39
2022/10/07 09:50:42;;;;;;;6.90;2.80;;;;;;;;;;104844;1298;22526;-39
2022/10/07 09:53:25;;;;;;;6.50;3.10;;;;;;;;;;104906;1288;24307;-40
2022/10/07 09:55:57;;;;;;;6.30;3.10;;;;;;;;;;104970;1293;56944;-40
2022/10/07 09:58:31;;;;;;;7.30;3.10;;;;;;;;;;105041;1296;23406;-39
2022/10/07 10:01:12;;;;;;;7.70;2.90;;;;;;;;;;105012;1296;22714;-39
2022/10/07 10:03:46;;;;;;;7.60;2.90;;;;;;;;;;105023;1296;22986;-39
2022/10/07 10:06:25;;;;;;;7.60;3.40;;;;;;;;;;105020;1292;22474;-39
2022/10/07 10:08:59;;;;;;;7.10;2.80;;;;;;;;;;105019;1292;22471;-38
2022/10/07 10:11:31;;;;;;;7.80;2.40;;;;;;;;;;104975;1291;22488;-38
2022/10/07 10:14:43;;;;;;;6.30;2.30;;;;;;;;;;105077;1293;23155;-38
2022/10/07 10:17:38;;;;;;;6.80;2.70;;;;;;;;;;105098;1293;22587;-38
2022/10/07 10:20:42;;;;;;;6.20;2.40;;;;;;;;;;105047;1293;23159;-38
2022/10/07 10:23:31;;;;;;;6.10;2.50;;;;;;;;;;104432;1292;25436;-38
2022/10/07 10:26:25;;;;;;;5.80;2.40;;;;;;;;;;104940;1294;22507;-39
2022/10/07 10:29:10;;;;;;;6.60;2.20;;;;;;;;;;104933;1295;22478;-38
2022/10/07 10:32:06;;;;;;;5.40;2.40;;;;;;;;;;104932;1301;24559;-38
2022/10/07 10:34:49;;;;;;;5.30;2.30;;;;;;;;;;104960;1288;23568;-38
2022/10/07 10:37:25;;;;;;;5.10;2.40;;;;;;;;;;105007;1292;22436;-38
2022/10/07 10:40:13;;;;;;;6.40;2.30;;;;;;;;;;105300;1288;22470;-38
2022/10/07 10:42:55;;;;;;;6.00;2.40;;;;;;;;;;105301;1289;24316;-36
2022/10/07 10:45:45;;;;;;;5.00;2.20;;;;;;;;;;105351;1288;22544;-37
2022/10/07 10:48:32;;;;;;;5.20;2.10;;;;;;;;;;105296;1289;24353;-38
2022/10/07 10:51:24;;;;;;;4.40;1.80;;;;;;;;;;105317;1294;22429;-38
2022/10/07 10:54:16;;;;;;;5.60;2.10;;;;;;;;;;105250;1288;22489;-38
2022/10/07 10:56:57;;;;;;;5.10;2.30;;;;;;;;;;105315;1288;22487;-38
2022/10/07 10:59:46;;;;;;;4.50;1.70;;;;;;;;;;105326;1292;22469;-38
2022/10/07 11:02:40;;;;;;;4.60;2.00;;;;;;;;;;105291;1288;22465;-38
2022/10/07 11:05:20;;;;;;;5.20;2.00;;;;;;;;;;105303;1288;22469;-38
2022/10/07 11:07:56;;;;;;;5.50;2.00;;;;;;;;;;105197;1298;22483;-38
2022/10/07 11:10:33;;;;;;;4.30;2.10;;;;;;;;;;105329;1295;22492;-38
2022/10/07 11:13:22;;;;;;;4.50;2.10;;;;;;;;;;105312;1295;22485;-38
2022/10/07 11:16:01;;;;;;;5.70;2.00;;;;;;;;;;105300;1288;28200;-37
2022/10/07 11:18:40;;;;;;;4.50;1.90;;;;;;;;;;105325;1291;22478;-37
2022/10/07 11:21:19;;;;;;;3.40;1.70;;;;;;;;;;105356;1292;25217;-37
2022/10/07 11:24:00;;;;;;;4.70;1.70;;;;;;;;;;105271;1288;22475;-37
2022/10/07 11:26:39;;;;;;;4.50;1.70;;;;;;;;;;105111;1291;22512;-38
2022/10/07 11:29:25;;;;;;;4.10;1.70;;;;;;;;;;105188;1288;23029;-37
2022/10/07 11:32:06;;;;;;;4.60;2.00;;;;;;;;;;105187;1288;25372;-38
2022/10/07 11:34:47;;;;;;;4.80;1.80;;;;;;;;;;105183;1287;22486;-38
2022/10/07 11:37:25;;;;;;;3.70;1.80;;;;;;;;;;105346;1288;22526;-37
2022/10/07 11:39:59;;;;;;;3.50;1.60;;;;;;;;;;105314;1282;22468;-37
2022/10/07 11:42:33;;;;;;;3.80;1.60;;;;;;;;;;105300;1288;25415;-37
2022/10/07 11:45:15;;;;;;;4.30;1.70;;;;;;;;;;105233;1288;22463;-38
2022/10/07 11:47:52;;;;;;;3.50;1.50;;;;;;;;;;105219;1287;22535;-38
2022/10/07 11:50:31;;;;;;;3.60;1.70;;;;;;;;;;105199;1289;22471;-37
2022/10/07 11:53:09;;;;;;;4.30;1.60;;;;;;;;;;105180;1293;22491;-38
2022/10/07 11:55:49;;;;;;;4.40;1.90;;;;;;;;;;105250;1293;22498;-38
2022/10/07 11:58:31;;;;;;;3.90;1.80;;;;;;;;;;105283;1295;25269;-38
2022/10/07 12:01:52;;;;;;;4.00;1.70;;;;;;;;;;105279;1288;22487;-37
2022/10/07 12:04:38;;;;;;;3.50;1.70;;;;;;;;;;105292;1288;22587;-37
2022/10/07 12:07:58;;;;;;;3.70;1.70;;;;;;;;;;105307;1288;25020;-38
2022/10/07 12:10:33;;;;;;;3.80;1.40;;;;;;;;;;105195;1297;23544;-40
2022/10/07 12:13:39;;;;;;;3.80;1.70;;;;;;;;;;105182;1282;24225;-37
2022/10/07 12:16:54;;;;;;;3.90;1.50;;;;;;;;;;105166;1294;25388;-38
2022/10/07 12:19:26;;;;;;;3.80;1.60;;;;;;;;;;105198;1296;22504;-38
2022/10/07 12:22:22;;;;;;;3.20;1.30;;;;;;;;;;105216;1295;22612;-38
2022/10/07 12:25:33;;;;;;;3.50;1.50;;;;;;;;;;105219;1288;24376;-38
2022/10/07 12:28:11;;;;;;;3.70;1.50;;;;;;;;;;105213;1292;22842;-38
2022/10/07 12:30:53;;;;;;;3.70;1.50;;;;;;;;;;105175;1284;25252;-38
2022/10/07 12:33:35;;;;;;;3.80;1.70;;;;;;;;;;105151;1290;22477;-38
2022/10/07 12:36:28;;;;;;;5.40;1.80;;;;;;;;;;105125;1291;22588;-37
2022/10/07 12:39:38;;;;;;;4.90;1.80;;;;;;;;;;105144;1290;22484;-38
2022/10/07 12:42:14;;;;;;;3.90;1.80;;;;;;;;;;105148;1291;22486;-38
2022/10/07 12:44:51;;;;;;;4.30;1.60;;;;;;;;;;105182;1292;22508;-38
2022/10/07 12:47:28;;;;;;;4.60;1.90;;;;;;;;;;105153;1292;26119;-38
2022/10/07 12:50:11;;;;;;;4.00;1.50;;;;;;;;;;105199;1296;24236;-38
2022/10/07 12:52:50;;;;;;;3.90;1.70;;;;;;;;;;105275;1287;22571;-38
2022/10/07 12:55:31;;;;;;;4.70;1.60;;;;;;;;;;105246;1290;25289;-37
2022/10/07 13:01:18;;;;;;;3.80;1.60;;;;;;;;;;105291;1282;22763;-38
2022/10/07 13:04:33;;;;;;;4.40;1.40;;;;;;;;;;105320;1296;22475;-38
2022/10/07 13:07:53;;;;;;;3.80;1.70;;;;;;;;;;105255;1288;22491;-36
2022/10/07 13:10:49;;;;;;;4.80;1.40;;;;;;;;;;105223;1291;22653;-37
2022/10/07 13:13:27;;;;;;;3.60;1.50;;;;;;;;;;105208;1290;24744;-36
2022/10/07 13:16:06;;;;;;;4.60;1.60;;;;;;;;;;105202;1284;22494;-36
2022/10/07 13:18:49;;;;;;;3.30;1.50;;;;;;;;;;105163;1290;25931;-36
2022/10/07 13:21:30;;;;;;;3.80;1.60;;;;;;;;;;105193;1291;22477;-36
2022/10/07 13:24:05;;;;;;;4.30;1.80;;;;;;;;;;105226;1284;22537;-36
2022/10/07 13:26:37;;;;;;;3.50;1.50;;;;;;;;;;105217;1288;24519;-35
2022/10/07 13:29:20;;;;;;;4.00;1.40;;;;;;;;;;105249;1290;22507;-36
2022/10/07 13:32:05;;;;;;;;;;;;;;;;;;105300;1284;22465;-38
2022/10/07 13:34:37;;;;;;;3.60;1.60;;;;;;;;;;105247;1294;22493;-38
2022/10/07 13:37:31;;;;;;;4.00;1.50;;;;;;;;;;105271;1287;22512;-37
2022/10/07 13:40:27;;;;;;;3.20;1.50;;;;;;;;;;105312;1289;27305;-39
2022/10/07 13:43:01;;;;;;;3.50;1.60;;;;;;;;;;105355;1289;22531;-39
2022/10/07 13:45:43;;;;;;;3.50;1.60;;;;;;;;;;105336;1289;22504;-39
2022/10/07 13:48:21;;;;;;;3.00;1.30;;;;;;;;;;105251;1281;24614;-38
2022/10/07 13:51:01;;;;;;;3.60;1.50;;;;;;;;;;105223;1297;22489;-38
2022/10/07 13:53:35;;;;;;;5.90;1.80;;;;;;;;;;105222;1292;22477;-37
2022/10/07 13:56:21;;;;;;;4.30;1.60;;;;;;;;;;105214;1288;25203;-38
2022/10/07 13:58:55;;;;;;;3.00;1.40;;;;;;;;;;105216;1285;25290;-39
2022/10/07 14:01:30;;;;;;;3.90;1.50;;;;;;;;;;105327;1288;22485;-39
2022/10/07 14:04:26;;;;;;;4.30;1.60;;;;;;;;;;105349;1286;25265;-38
2022/10/07 14:07:08;;;;;;;3.70;1.70;;;;;;;;;;105358;1290;25999;-38
2022/10/07 14:09:48;;;;;;;3.90;1.40;;;;;;;;;;105318;1282;22468;-38
2022/10/07 14:12:30;;;;;;;3.60;1.60;;;;;;;;;;105386;1288;22479;-38
2022/10/07 14:15:11;;;;;;;4.10;1.70;;;;;;;;;;105388;1288;22491;-37
2022/10/07 14:17:48;;;;;;;3.50;1.70;;;;;;;;;;105351;1288;22709;-36
2022/10/07 14:20:25;;;;;;;3.30;1.50;;;;;;;;;;105305;1290;22517;-39
2022/10/07 14:23:00;;;;;;;3.20;1.40;;;;;;;;;;105297;1292;23229;-39
2022/10/07 14:25:49;;;;;;;4.40;1.70;;;;;;;;;;105320;1289;22511;-38
2022/10/07 14:28:28;;;;;;;5.10;1.50;;;;;;;;;;105324;1288;22480;-35
2022/10/07 14:37:10;;;;;;;3.80;1.40;;;;;;;;;;105365;1289;22464;-35
2022/10/07 14:39:47;;;;;;;4.10;1.60;;;;;;;;;;105297;1289;22976;-36
2022/10/07 14:42:24;;;;;;;3.60;1.40;;;;;;;;;;105303;1282;22523;-36
2022/10/07 14:44:57;;;;;;;5.80;1.50;;;;;;;;;;105295;1288;23458;-36
2022/10/07 14:47:30;;;;;;;3.20;1.60;;;;;;;;;;105319;1290;22467;-36
2022/10/07 14:50:03;;;;;;;3.70;1.60;;;;;;;;;;105257;1282;22478;-36
2022/10/07 14:52:42;;;;;;;3.30;1.50;;;;;;;;;;105344;1288;22661;-35
2022/10/07 14:55:18;;;;;;;3.10;1.50;;;;;;;;;;105194;1291;22471;-36
2022/10/07 14:57:51;;;;;;;3.30;1.60;;;;;;;;;;105308;1297;22642;-36
2022/10/07 15:00:28;;;;;;;3.60;1.60;;;;;;;;;;105288;1281;22501;-36
2022/10/07 15:03:02;;;;;;;3.50;1.60;;;;;;;;;;105342;1291;22565;-35
2022/10/07 15:05:36;;;;;;;3.40;1.70;;;;;;;;;;105319;1286;22529;-35
2022/10/07 15:08:11;;;;;;;3.40;1.60;;;;;;;;;;105362;1288;22954;-35
2022/10/07 15:10:45;;;;;;;3.70;1.80;;;;;;;;;;105269;1289;22478;-36
2022/10/07 15:13:17;;;;;;;3.40;1.60;;;;;;;;;;105342;1289;22461;-36
2022/10/07 15:15:49;;;;;;;4.20;1.80;;;;;;;;;;105344;1285;24357;-36
2022/10/07 15:18:21;;;;;;;3.60;1.40;;;;;;;;;;105321;1282;22506;-36
2022/10/07 15:20:58;;;;;;;3.40;1.60;;;;;;;;;;105240;1289;25256;-36
2022/10/07 15:23:30;;;;;;;3.50;1.70;;;;;;;;;;105242;1292;22528;-36
2022/10/07 15:26:03;;;;;;;3.60;1.50;;;;;;;;;;105203;1292;23559;-36
2022/10/07 15:28:36;;;;;;;3.80;1.50;;;;;;;;;;105212;1288;22558;-36
2022/10/07 15:31:10;;;;;;;3.40;1.50;;;;;;;;;;105260;1291;22680;-36
2022/10/07 15:33:41;;;;;;;3.50;1.60;;;;;;;;;;105375;1288;22495;-35
2022/10/07 15:36:14;;;;;;;3.70;1.60;;;;;;;;;;105351;1291;24547;-36
2022/10/07 15:38:45;;;;;;;3.50;1.50;;;;;;;;;;105350;1282;22483;-35
2022/10/07 15:41:35;;;;;;;3.30;1.50;;;;;;;;;;105201;1292;22473;-36
2022/10/07 15:44:15;;;;;;;4.00;1.90;;;;;;;;;;105207;1288;22502;-36
2022/10/07 15:46:56;;;;;;;3.60;1.60;;;;;;;;;;105229;1288;22489;-36
2022/10/07 15:49:28;;;;;;;4.20;2.10;;;;;;;;;;105217;1285;22486;-36